sensor_id;sensor_type;location;lat;lon;timestamp;temperature;humidity
13970;DHT22;7057;49.984;8.404;2023-02-21T00:01:49;6.10;99.90
13970;DHT22;7057;49.984;8.404;2023-02-21T00:04:34;6.10;99.90
13970;DHT22;7057;49.984;8.404;2023-02-21T00:07:19;6.00;99.90
13970;DHT22;7057;49.984;8.404;2023-02-21T00:10:04;6.00;99.90
13970;DHT22;7057;49.984;8.404;2023-02-21T00:12:51;6.00;99.90
13970;DHT22;7057;49.984;8.404;2023-02-21T00:15:35;5.90;99.90
13970;DHT22;7057;49.984;8.404;2023-02-21T00:18:20;5.90;99.90
13970;DHT22;7057;49.984;8.404;2023-02-21T00:21:05;5.90;99.90
13970;DHT22;7057;49.984;8.404;2023-02-21T00:23:50;5.90;99.90
13970;DHT22;7057;49.984;8.404;2023-02-21T00:26:34;5.80;99.90
13970;DHT22;7057;49.984;8.404;2023-02-21T00:29:21;5.80;99.90
13970;DHT22;7057;49.984;8.404;2023-02-21T00:32:05;5.80;99.90
13970;DHT22;7057;49.984;8.404;2023-02-21T00:34:51;5.70;99.90
13970;DHT22;7057;49.984;8.404;2023-02-21T00:37:36;5.80;99.90
13970;DHT22;7057;49.984;8.404;2023-02-21T00:40:20;5.70;99.90
13970;DHT22;7057;49.984;8.404;2023-02-21T00:43:05;5.70;99.90
13970;DHT22;7057;49.984;8.404;2023-02-21T00:45:51;5.70;99.90
13970;DHT22;7057;49.984;8.404;2023-02-21T00:48:35;5.60;99.90
13970;DHT22;7057;49.984;8.404;2023-02-21T00:51:20;5.70;99.90
13970;DHT22;7057;49.984;8.404;2023-02-21T00:54:05;5.60;99.90
13970;DHT22;7057;49.984;8.404;2023-02-21T00:56:49;5.60;99.90
13970;DHT22;7057;49.984;8.404;2023-02-21T00:59:34;5.60;99.90
13970;DHT22;7057;49.984;8.404;2023-02-21T01:02:19;5.60;99.90
13970;DHT22;7057;49.984;8.404;2023-02-21T01:05:05;5.60;99.90
13970;DHT22;7057;49.984;8.404;2023-02-21T01:07:50;5.60;99.90
13970;DHT22;7057;49.984;8.404;2023-02-21T01:10:35;5.60;99.90
13970;DHT22;7057;49.984;8.404;2023-02-21T01:13:19;5.60;99.90
13970;DHT22;7057;49.984;8.404;2023-02-21T01:16:06;5.70;99.90
13970;DHT22;7057;49.984;8.404;2023-02-21T01:18:52;5.70;99.90
13970;DHT22;7057;49.984;8.404;2023-02-21T01:21:36;5.70;99.90
13970;DHT22;7057;49.984;8.404;2023-02-21T01:24:21;5.70;99.90
13970;DHT22;7057;49.984;8.404;2023-02-21T01:27:06;5.70;99.90
13970;DHT22;7057;49.984;8.404;2023-02-21T01:29:50;5.70;99.90
13970;DHT22;7057;49.984;8.404;2023-02-21T01:32:35;5.70;99.90
13970;DHT22;7057;49.984;8.404;2023-02-21T01:35:21;5.70;99.90
13970;DHT22;7057;49.984;8.404;2023-02-21T01:38:05;5.70;99.90
13970;DHT22;7057;49.984;8.404;2023-02-21T01:40:50;5.70;99.90
13970;DHT22;7057;49.984;8.404;2023-02-21T01:43:34;5.60;99.90
13970;DHT22;7057;49.984;8.404;2023-02-21T01:46:20;5.60;99.90
13970;DHT22;7057;49.984;8.404;2023-02-21T01:49:07;5.60;99.90
13970;DHT22;7057;49.984;8.404;2023-02-21T01:51:54;5.60;99.90
13970;DHT22;7057;49.984;8.404;2023-02-21T01:54:42;5.60;99.90
13970;DHT22;7057;49.984;8.404;2023-02-21T01:57:29;5.60;99.90
13970;DHT22;7057;49.984;8.404;2023-02-21T02:00:15;5.50;99.90
13970;DHT22;7057;49.984;8.404;2023-02-21T02:03:02;5.50;99.90
13970;DHT22;7057;49.984;8.404;2023-02-21T02:05:49;5.50;99.90
13970;DHT22;7057;49.984;8.404;2023-02-21T02:08:36;5.50;99.90
13970;DHT22;7057;49.984;8.404;2023-02-21T02:11:42;5.40;99.90
13970;DHT22;7057;49.984;8.404;2023-02-21T02:14:46;5.30;99.90
13970;DHT22;7057;49.984;8.404;2023-02-21T02:17:22;5.30;99.90
13970;DHT22;7057;49.984;8.404;2023-02-21T02:23:33;5.30;99.90
13970;DHT22;7057;49.984;8.404;2023-02-21T02:29:36;5.20;99.90
13970;DHT22;7057;49.984;8.404;2023-02-21T02:32:20;5.10;99.90
13970;DHT22;7057;49.984;8.404;2023-02-21T02:34:56;5.10;99.90
13970;DHT22;7057;49.984;8.404;2023-02-21T02:37:30;5.00;99.90
13970;DHT22;7057;49.984;8.404;2023-02-21T02:40:02;5.00;99.90
13970;DHT22;7057;49.984;8.404;2023-02-21T02:42:40;5.00;99.90
13970;DHT22;7057;49.984;8.404;2023-02-21T02:45:16;4.90;99.90
13970;DHT22;7057;49.984;8.404;2023-02-21T02:47:48;4.90;99.90
13970;DHT22;7057;49.984;8.404;2023-02-21T02:50:19;4.90;99.90
13970;DHT22;7057;49.984;8.404;2023-02-21T02:52:51;4.90;99.90
13970;DHT22;7057;49.984;8.404;2023-02-21T02:55:29;4.90;99.90
13970;DHT22;7057;49.984;8.404;2023-02-21T02:57:58;4.90;99.90
13970;DHT22;7057;49.984;8.404;2023-02-21T03:00:26;4.80;99.90
13970;DHT22;7057;49.984;8.404;2023-02-21T03:06:13;4.80;99.90
13970;DHT22;7057;49.984;8.404;2023-02-21T03:08:52;4.80;99.90
13970;DHT22;7057;49.984;8.404;2023-02-21T03:11:23;4.70;99.90
13970;DHT22;7057;49.984;8.404;2023-02-21T03:13:55;4.70;99.90
13970;DHT22;7057;49.984;8.404;2023-02-21T03:16:25;4.70;99.90
13970;DHT22;7057;49.984;8.404;2023-02-21T03:18:58;4.60;99.90
13970;DHT22;7057;49.984;8.404;2023-02-21T03:21:33;4.60;99.90
13970;DHT22;7057;49.984;8.404;2023-02-21T03:24:04;4.60;99.90
13970;DHT22;7057;49.984;8.404;2023-02-21T03:26:35;4.50;99.90
13970;DHT22;7057;49.984;8.404;2023-02-21T03:29:03;4.50;99.90
13970;DHT22;7057;49.984;8.404;2023-02-21T03:31:35;4.40;99.90
13970;DHT22;7057;49.984;8.404;2023-02-21T03:34:03;4.40;99.90
13970;DHT22;7057;49.984;8.404;2023-02-21T03:36:32;4.40;99.90
13970;DHT22;7057;49.984;8.404;2023-02-21T03:38:59;4.40;99.90
13970;DHT22;7057;49.984;8.404;2023-02-21T03:41:26;4.40;99.90
13970;DHT22;7057;49.984;8.404;2023-02-21T03:43:53;4.30;99.90
13970;DHT22;7057;49.984;8.404;2023-02-21T03:46:20;4.30;99.90
13970;DHT22;7057;49.984;8.404;2023-02-21T03:48:48;4.30;99.90
13970;DHT22;7057;49.984;8.404;2023-02-21T03:51:15;4.20;99.90
13970;DHT22;7057;49.984;8.404;2023-02-21T03:53:43;4.20;99.90
13970;DHT22;7057;49.984;8.404;2023-02-21T03:56:11;4.20;99.90
13970;DHT22;7057;49.984;8.404;2023-02-21T03:58:38;4.10;99.90
13970;DHT22;7057;49.984;8.404;2023-02-21T04:01:05;4.10;99.90
13970;DHT22;7057;49.984;8.404;2023-02-21T04:03:32;4.00;99.90
13970;DHT22;7057;49.984;8.404;2023-02-21T04:05:59;4.00;99.90
13970;DHT22;7057;49.984;8.404;2023-02-21T04:08:28;4.00;99.90
13970;DHT22;7057;49.984;8.404;2023-02-21T04:10:57;4.00;99.90
13970;DHT22;7057;49.984;8.404;2023-02-21T04:13:24;4.00;99.90
13970;DHT22;7057;49.984;8.404;2023-02-21T04:15:51;3.90;99.90
13970;DHT22;7057;49.984;8.404;2023-02-21T04:18:18;3.90;99.90
13970;DHT22;7057;49.984;8.404;2023-02-21T04:20:45;3.90;99.90
13970;DHT22;7057;49.984;8.404;2023-02-21T04:23:16;3.90;99.90
13970;DHT22;7057;49.984;8.404;2023-02-21T04:25:43;3.90;99.90
13970;DHT22;7057;49.984;8.404;2023-02-21T04:28:12;3.80;99.90
13970;DHT22;7057;49.984;8.404;2023-02-21T04:30:39;3.80;99.90
13970;DHT22;7057;49.984;8.404;2023-02-21T04:33:06;3.80;99.90
13970;DHT22;7057;49.984;8.404;2023-02-21T04:35:33;3.80;99.90
13970;DHT22;7057;49.984;8.404;2023-02-21T04:38:00;3.70;99.90
13970;DHT22;7057;49.984;8.404;2023-02-21T04:40:27;3.80;99.90
13970;DHT22;7057;49.984;8.404;2023-02-21T04:42:55;3.70;99.90
13970;DHT22;7057;49.984;8.404;2023-02-21T04:45:23;3.70;99.90
13970;DHT22;7057;49.984;8.404;2023-02-21T04:47:50;3.70;99.90
13970;DHT22;7057;49.984;8.404;2023-02-21T04:50:18;3.70;99.90
13970;DHT22;7057;49.984;8.404;2023-02-21T04:52:46;3.60;99.90
13970;DHT22;7057;49.984;8.404;2023-02-21T04:55:13;3.70;99.90
13970;DHT22;7057;49.984;8.404;2023-02-21T04:57:41;3.70;99.90
13970;DHT22;7057;49.984;8.404;2023-02-21T05:00:10;3.60;99.90
13970;DHT22;7057;49.984;8.404;2023-02-21T05:02:41;3.60;99.90
13970;DHT22;7057;49.984;8.404;2023-02-21T05:05:08;3.60;99.90
13970;DHT22;7057;49.984;8.404;2023-02-21T05:07:35;3.50;99.90
13970;DHT22;7057;49.984;8.404;2023-02-21T05:10:03;3.50;99.90
13970;DHT22;7057;49.984;8.404;2023-02-21T05:12:31;3.50;99.90
13970;DHT22;7057;49.984;8.404;2023-02-21T05:14:58;3.50;99.90
13970;DHT22;7057;49.984;8.404;2023-02-21T05:17:25;3.40;99.90
13970;DHT22;7057;49.984;8.404;2023-02-21T05:19:54;3.40;99.90
13970;DHT22;7057;49.984;8.404;2023-02-21T05:22:21;3.40;99.90
13970;DHT22;7057;49.984;8.404;2023-02-21T05:24:48;3.40;99.90
13970;DHT22;7057;49.984;8.404;2023-02-21T05:27:18;3.30;99.90
13970;DHT22;7057;49.984;8.404;2023-02-21T05:29:46;3.30;99.90
13970;DHT22;7057;49.984;8.404;2023-02-21T05:32:15;3.30;99.90
13970;DHT22;7057;49.984;8.404;2023-02-21T05:34:42;3.30;99.90
13970;DHT22;7057;49.984;8.404;2023-02-21T05:37:13;3.30;99.90
13970;DHT22;7057;49.984;8.404;2023-02-21T05:39:40;3.30;99.90
13970;DHT22;7057;49.984;8.404;2023-02-21T05:42:07;3.20;99.90
13970;DHT22;7057;49.984;8.404;2023-02-21T05:44:35;3.20;99.90
13970;DHT22;7057;49.984;8.404;2023-02-21T05:47:02;3.20;99.90
13970;DHT22;7057;49.984;8.404;2023-02-21T05:49:29;3.20;99.90
13970;DHT22;7057;49.984;8.404;2023-02-21T05:51:56;3.20;99.90
13970;DHT22;7057;49.984;8.404;2023-02-21T05:54:24;3.20;99.90
13970;DHT22;7057;49.984;8.404;2023-02-21T05:56:52;3.20;99.90
13970;DHT22;7057;49.984;8.404;2023-02-21T05:59:20;3.20;99.90
13970;DHT22;7057;49.984;8.404;2023-02-21T06:01:48;3.20;99.90
13970;DHT22;7057;49.984;8.404;2023-02-21T06:04:15;3.20;99.90
13970;DHT22;7057;49.984;8.404;2023-02-21T06:06:43;3.20;99.90
13970;DHT22;7057;49.984;8.404;2023-02-21T06:09:11;3.20;99.90
13970;DHT22;7057;49.984;8.404;2023-02-21T06:11:39;3.10;99.90
13970;DHT22;7057;49.984;8.404;2023-02-21T06:14:12;3.10;99.90
13970;DHT22;7057;49.984;8.404;2023-02-21T06:16:39;3.00;99.90
13970;DHT22;7057;49.984;8.404;2023-02-21T06:19:07;3.10;99.90
13970;DHT22;7057;49.984;8.404;2023-02-21T06:21:35;3.10;99.90
13970;DHT22;7057;49.984;8.404;2023-02-21T06:24:02;3.10;99.90
13970;DHT22;7057;49.984;8.404;2023-02-21T06:26:30;3.10;99.90
13970;DHT22;7057;49.984;8.404;2023-02-21T06:28:59;3.10;99.90
13970;DHT22;7057;49.984;8.404;2023-02-21T06:31:26;3.20;99.90
13970;DHT22;7057;49.984;8.404;2023-02-21T06:33:53;3.20;99.90
13970;DHT22;7057;49.984;8.404;2023-02-21T06:36:23;3.20;99.90
13970;DHT22;7057;49.984;8.404;2023-02-21T06:38:52;3.20;99.90
13970;DHT22;7057;49.984;8.404;2023-02-21T06:41:23;3.20;99.90
13970;DHT22;7057;49.984;8.404;2023-02-21T06:43:52;3.20;99.90
13970;DHT22;7057;49.984;8.404;2023-02-21T06:46:23;3.20;99.90
13970;DHT22;7057;49.984;8.404;2023-02-21T06:48:51;3.20;99.90
13970;DHT22;7057;49.984;8.404;2023-02-21T06:51:19;3.20;99.90
13970;DHT22;7057;49.984;8.404;2023-02-21T06:53:49;3.20;99.90
13970;DHT22;7057;49.984;8.404;2023-02-21T06:56:16;3.30;99.90
13970;DHT22;7057;49.984;8.404;2023-02-21T06:58:43;3.30;99.90
13970;DHT22;7057;49.984;8.404;2023-02-21T07:01:10;3.40;99.90
13970;DHT22;7057;49.984;8.404;2023-02-21T07:03:40;3.40;99.90
13970;DHT22;7057;49.984;8.404;2023-02-21T07:06:09;3.50;99.90
13970;DHT22;7057;49.984;8.404;2023-02-21T07:08:36;3.50;99.90
13970;DHT22;7057;49.984;8.404;2023-02-21T07:11:04;3.60;99.90
13970;DHT22;7057;49.984;8.404;2023-02-21T07:13:32;3.70;99.90
13970;DHT22;7057;49.984;8.404;2023-02-21T07:15:59;3.70;99.90
13970;DHT22;7057;49.984;8.404;2023-02-21T07:18:27;3.80;99.90
13970;DHT22;7057;49.984;8.404;2023-02-21T07:20:56;3.90;99.90
13970;DHT22;7057;49.984;8.404;2023-02-21T07:23:23;3.90;99.90
13970;DHT22;7057;49.984;8.404;2023-02-21T07:25:50;4.00;99.90
13970;DHT22;7057;49.984;8.404;2023-02-21T07:28:18;4.10;99.90
13970;DHT22;7057;49.984;8.404;2023-02-21T07:30:45;4.20;99.90
13970;DHT22;7057;49.984;8.404;2023-02-21T07:33:12;4.30;99.90
13970;DHT22;7057;49.984;8.404;2023-02-21T07:35:40;4.40;99.90
13970;DHT22;7057;49.984;8.404;2023-02-21T07:38:08;4.50;99.90
13970;DHT22;7057;49.984;8.404;2023-02-21T07:40:35;4.60;99.90
13970;DHT22;7057;49.984;8.404;2023-02-21T07:43:02;4.70;99.90
13970;DHT22;7057;49.984;8.404;2023-02-21T07:45:29;4.80;99.90
13970;DHT22;7057;49.984;8.404;2023-02-21T07:47:57;4.90;99.90
13970;DHT22;7057;49.984;8.404;2023-02-21T07:50:24;5.00;99.90
13970;DHT22;7057;49.984;8.404;2023-02-21T07:52:51;5.20;99.90
13970;DHT22;7057;49.984;8.404;2023-02-21T07:55:19;5.30;99.90
13970;DHT22;7057;49.984;8.404;2023-02-21T07:57:47;5.40;99.90
13970;DHT22;7057;49.984;8.404;2023-02-21T08:00:15;5.50;99.90
13970;DHT22;7057;49.984;8.404;2023-02-21T08:02:46;5.60;99.90
13970;DHT22;7057;49.984;8.404;2023-02-21T08:05:15;5.70;99.90
13970;DHT22;7057;49.984;8.404;2023-02-21T08:07:42;5.80;99.90
13970;DHT22;7057;49.984;8.404;2023-02-21T08:10:10;6.00;99.90
13970;DHT22;7057;49.984;8.404;2023-02-21T08:12:39;6.10;99.90
13970;DHT22;7057;49.984;8.404;2023-02-21T08:15:07;6.20;99.90
13970;DHT22;7057;49.984;8.404;2023-02-21T08:17:34;6.20;99.90
13970;DHT22;7057;49.984;8.404;2023-02-21T08:20:03;6.30;99.90
13970;DHT22;7057;49.984;8.404;2023-02-21T08:22:31;6.40;99.90
13970;DHT22;7057;49.984;8.404;2023-02-21T08:24:58;6.50;99.90
13970;DHT22;7057;49.984;8.404;2023-02-21T08:27:25;6.70;99.90
13970;DHT22;7057;49.984;8.404;2023-02-21T08:29:54;6.70;99.90
13970;DHT22;7057;49.984;8.404;2023-02-21T08:32:21;6.90;99.90
13970;DHT22;7057;49.984;8.404;2023-02-21T08:34:49;7.00;99.90
13970;DHT22;7057;49.984;8.404;2023-02-21T08:37:16;7.00;99.90
13970;DHT22;7057;49.984;8.404;2023-02-21T08:39:45;7.10;99.90
13970;DHT22;7057;49.984;8.404;2023-02-21T08:42:13;7.30;99.90
13970;DHT22;7057;49.984;8.404;2023-02-21T08:44:42;7.40;99.90
13970;DHT22;7057;49.984;8.404;2023-02-21T08:47:11;7.50;99.90
13970;DHT22;7057;49.984;8.404;2023-02-21T08:49:38;7.50;99.90
13970;DHT22;7057;49.984;8.404;2023-02-21T08:52:08;7.60;99.90
13970;DHT22;7057;49.984;8.404;2023-02-21T08:54:35;7.70;99.90
13970;DHT22;7057;49.984;8.404;2023-02-21T08:57:03;8.00;99.90
13970;DHT22;7057;49.984;8.404;2023-02-21T08:59:30;7.80;99.90
13970;DHT22;7057;49.984;8.404;2023-02-21T09:01:58;7.80;99.90
13970;DHT22;7057;49.984;8.404;2023-02-21T09:04:27;7.90;99.90
13970;DHT22;7057;49.984;8.404;2023-02-21T09:06:54;8.00;99.90
13970;DHT22;7057;49.984;8.404;2023-02-21T09:09:22;8.10;99.90
13970;DHT22;7057;49.984;8.404;2023-02-21T09:11:49;8.30;99.90
13970;DHT22;7057;49.984;8.404;2023-02-21T09:14:16;8.40;99.90
13970;DHT22;7057;49.984;8.404;2023-02-21T09:16:43;8.50;99.90
13970;DHT22;7057;49.984;8.404;2023-02-21T09:19:11;8.60;99.90
13970;DHT22;7057;49.984;8.404;2023-02-21T09:21:44;8.70;99.90
13970;DHT22;7057;49.984;8.404;2023-02-21T09:24:12;8.70;99.90
13970;DHT22;7057;49.984;8.404;2023-02-21T09:26:39;8.80;99.90
13970;DHT22;7057;49.984;8.404;2023-02-21T09:29:07;8.90;99.90
13970;DHT22;7057;49.984;8.404;2023-02-21T09:31:37;9.00;99.90
13970;DHT22;7057;49.984;8.404;2023-02-21T09:34:04;9.10;99.90
13970;DHT22;7057;49.984;8.404;2023-02-21T09:36:34;9.20;99.90
13970;DHT22;7057;49.984;8.404;2023-02-21T09:39:03;9.30;99.90
13970;DHT22;7057;49.984;8.404;2023-02-21T09:41:32;9.40;99.90
13970;DHT22;7057;49.984;8.404;2023-02-21T09:44:00;9.60;99.90
13970;DHT22;7057;49.984;8.404;2023-02-21T09:46:33;9.80;99.90
13970;DHT22;7057;49.984;8.404;2023-02-21T09:49:02;9.90;99.90
13970;DHT22;7057;49.984;8.404;2023-02-21T09:51:32;10.10;99.90
13970;DHT22;7057;49.984;8.404;2023-02-21T09:54:03;10.20;99.90
13970;DHT22;7057;49.984;8.404;2023-02-21T09:56:33;10.30;99.90
13970;DHT22;7057;49.984;8.404;2023-02-21T09:59:01;10.30;99.90
13970;DHT22;7057;49.984;8.404;2023-02-21T10:01:41;10.30;99.90
13970;DHT22;7057;49.984;8.404;2023-02-21T10:04:16;10.20;99.90
13970;DHT22;7057;49.984;8.404;2023-02-21T10:06:51;10.30;99.90
13970;DHT22;7057;49.984;8.404;2023-02-21T10:09:37;10.40;99.90
13970;DHT22;7057;49.984;8.404;2023-02-21T10:12:13;10.40;99.90
13970;DHT22;7057;49.984;8.404;2023-02-21T10:14:58;10.50;99.90
13970;DHT22;7057;49.984;8.404;2023-02-21T10:17:33;10.60;99.90
13970;DHT22;7057;49.984;8.404;2023-02-21T10:20:04;10.80;99.90
13970;DHT22;7057;49.984;8.404;2023-02-21T10:22:39;10.90;99.90
13970;DHT22;7057;49.984;8.404;2023-02-21T10:25:20;11.10;99.90
13970;DHT22;7057;49.984;8.404;2023-02-21T10:27:48;11.20;99.90
13970;DHT22;7057;49.984;8.404;2023-02-21T10:30:23;11.30;99.90
13970;DHT22;7057;49.984;8.404;2023-02-21T10:32:54;11.40;99.90
13970;DHT22;7057;49.984;8.404;2023-02-21T10:35:21;11.60;99.90
13970;DHT22;7057;49.984;8.404;2023-02-21T10:37:50;11.70;99.90
13970;DHT22;7057;49.984;8.404;2023-02-21T10:40:30;11.80;99.90
13970;DHT22;7057;49.984;8.404;2023-02-21T10:43:04;11.80;99.90
13970;DHT22;7057;49.984;8.404;2023-02-21T10:45:35;11.90;99.90
13970;DHT22;7057;49.984;8.404;2023-02-21T10:48:05;12.10;99.90
13970;DHT22;7057;49.984;8.404;2023-02-21T10:50:42;12.00;99.90
13970;DHT22;7057;49.984;8.404;2023-02-21T10:53:23;12.00;99.90
13970;DHT22;7057;49.984;8.404;2023-02-21T10:58:52;12.30;99.90
13970;DHT22;7057;49.984;8.404;2023-02-21T11:01:22;12.50;99.90
13970;DHT22;7057;49.984;8.404;2023-02-21T11:03:58;12.60;99.90
13970;DHT22;7057;49.984;8.404;2023-02-21T11:06:31;12.60;99.90
13970;DHT22;7057;49.984;8.404;2023-02-21T11:08:59;12.70;99.90
13970;DHT22;7057;49.984;8.404;2023-02-21T11:11:35;12.80;99.90
13970;DHT22;7057;49.984;8.404;2023-02-21T11:14:24;12.90;99.90
13970;DHT22;7057;49.984;8.404;2023-02-21T11:17:06;12.90;99.90
13970;DHT22;7057;49.984;8.404;2023-02-21T11:19:46;12.90;99.90
13970;DHT22;7057;49.984;8.404;2023-02-21T11:22:15;12.80;99.90
13970;DHT22;7057;49.984;8.404;2023-02-21T11:24:58;13.00;99.90
13970;DHT22;7057;49.984;8.404;2023-02-21T11:27:27;13.10;99.90
13970;DHT22;7057;49.984;8.404;2023-02-21T11:29:56;13.20;99.90
13970;DHT22;7057;49.984;8.404;2023-02-21T11:32:30;13.20;99.90
13970;DHT22;7057;49.984;8.404;2023-02-21T11:35:07;13.40;99.90
13970;DHT22;7057;49.984;8.404;2023-02-21T11:37:47;13.50;99.90
13970;DHT22;7057;49.984;8.404;2023-02-21T11:40:31;13.60;99.90
13970;DHT22;7057;49.984;8.404;2023-02-21T11:43:11;13.50;99.90
13970;DHT22;7057;49.984;8.404;2023-02-21T11:45:50;13.50;99.90
13970;DHT22;7057;49.984;8.404;2023-02-21T11:48:27;13.50;99.90
13970;DHT22;7057;49.984;8.404;2023-02-21T11:51:02;13.50;99.90
13970;DHT22;7057;49.984;8.404;2023-02-21T11:53:38;13.50;99.90
13970;DHT22;7057;49.984;8.404;2023-02-21T11:56:13;13.40;99.90
13970;DHT22;7057;49.984;8.404;2023-02-21T11:58:48;13.30;99.90
13970;DHT22;7057;49.984;8.404;2023-02-21T12:01:26;13.40;99.90
13970;DHT22;7057;49.984;8.404;2023-02-21T12:04:14;13.60;99.90
13970;DHT22;7057;49.984;8.404;2023-02-21T12:06:50;13.80;99.90
13970;DHT22;7057;49.984;8.404;2023-02-21T12:09:26;13.90;99.90
13970;DHT22;7057;49.984;8.404;2023-02-21T12:12:10;14.10;99.90
13970;DHT22;7057;49.984;8.404;2023-02-21T12:14:59;14.20;99.90
13970;DHT22;7057;49.984;8.404;2023-02-21T12:17:44;14.30;99.90
13970;DHT22;7057;49.984;8.404;2023-02-21T12:20:31;14.30;99.90
13970;DHT22;7057;49.984;8.404;2023-02-21T12:23:07;14.40;99.90
13970;DHT22;7057;49.984;8.404;2023-02-21T12:25:46;14.40;99.90
13970;DHT22;7057;49.984;8.404;2023-02-21T12:28:23;14.50;99.90
13970;DHT22;7057;49.984;8.404;2023-02-21T12:31:17;14.60;99.90
13970;DHT22;7057;49.984;8.404;2023-02-21T12:33:57;14.70;99.90
13970;DHT22;7057;49.984;8.404;2023-02-21T12:37:01;14.70;99.90
13970;DHT22;7057;49.984;8.404;2023-02-21T12:39:55;14.80;99.90
13970;DHT22;7057;49.984;8.404;2023-02-21T12:42:32;14.80;99.90
13970;DHT22;7057;49.984;8.404;2023-02-21T12:45:17;14.70;99.90
13970;DHT22;7057;49.984;8.404;2023-02-21T12:47:50;14.70;99.90
13970;DHT22;7057;49.984;8.404;2023-02-21T12:50:24;14.70;99.90
13970;DHT22;7057;49.984;8.404;2023-02-21T12:52:56;14.70;99.90
13970;DHT22;7057;49.984;8.404;2023-02-21T12:55:31;14.70;99.90
13970;DHT22;7057;49.984;8.404;2023-02-21T12:58:08;14.70;99.90
13970;DHT22;7057;49.984;8.404;2023-02-21T13:00:40;14.70;99.90
13970;DHT22;7057;49.984;8.404;2023-02-21T13:03:15;14.70;99.90
13970;DHT22;7057;49.984;8.404;2023-02-21T13:05:50;14.80;99.90
13970;DHT22;7057;49.984;8.404;2023-02-21T13:08:23;15.00;99.90
13970;DHT22;7057;49.984;8.404;2023-02-21T13:10:54;15.00;99.90
13970;DHT22;7057;49.984;8.404;2023-02-21T13:13:27;14.90;99.90
13970;DHT22;7057;49.984;8.404;2023-02-21T13:15:58;15.00;99.90
13970;DHT22;7057;49.984;8.404;2023-02-21T13:18:29;15.00;99.90
13970;DHT22;7057;49.984;8.404;2023-02-21T13:21:03;14.90;99.90
13970;DHT22;7057;49.984;8.404;2023-02-21T13:26:48;14.90;99.90
13970;DHT22;7057;49.984;8.404;2023-02-21T13:29:19;15.00;99.90
13970;DHT22;7057;49.984;8.404;2023-02-21T13:31:54;15.10;99.90
13970;DHT22;7057;49.984;8.404;2023-02-21T13:34:25;15.20;99.90
13970;DHT22;7057;49.984;8.404;2023-02-21T13:36:59;15.20;99.90
13970;DHT22;7057;49.984;8.404;2023-02-21T13:39:28;15.30;99.90
13970;DHT22;7057;49.984;8.404;2023-02-21T13:42:05;15.20;99.90
13970;DHT22;7057;49.984;8.404;2023-02-21T13:44:34;15.20;99.90
13970;DHT22;7057;49.984;8.404;2023-02-21T13:47:15;15.30;99.90
13970;DHT22;7057;49.984;8.404;2023-02-21T13:49:50;15.30;99.90
13970;DHT22;7057;49.984;8.404;2023-02-21T13:53:00;15.40;99.90
13970;DHT22;7057;49.984;8.404;2023-02-21T13:55:30;15.30;99.90
13970;DHT22;7057;49.984;8.404;2023-02-21T13:58:22;15.40;99.90
13970;DHT22;7057;49.984;8.404;2023-02-21T14:00:52;15.40;99.90
13970;DHT22;7057;49.984;8.404;2023-02-21T14:03:31;15.50;99.90
13970;DHT22;7057;49.984;8.404;2023-02-21T14:06:31;15.50;99.90
13970;DHT22;7057;49.984;8.404;2023-02-21T14:09:03;15.50;99.90
13970;DHT22;7057;49.984;8.404;2023-02-21T14:11:36;15.50;99.90
13970;DHT22;7057;49.984;8.404;2023-02-21T14:14:17;15.70;99.90
13970;DHT22;7057;49.984;8.404;2023-02-21T14:16:49;15.70;99.90
13970;DHT22;7057;49.984;8.404;2023-02-21T14:19:22;15.70;99.90
13970;DHT22;7057;49.984;8.404;2023-02-21T14:21:55;15.80;99.90
13970;DHT22;7057;49.984;8.404;2023-02-21T14:24:26;15.80;99.90
13970;DHT22;7057;49.984;8.404;2023-02-21T14:26:55;15.70;99.90
13970;DHT22;7057;49.984;8.404;2023-02-21T14:29:31;15.80;99.90
13970;DHT22;7057;49.984;8.404;2023-02-21T14:32:22;15.70;99.90
13970;DHT22;7057;49.984;8.404;2023-02-21T14:34:52;15.70;99.90
13970;DHT22;7057;49.984;8.404;2023-02-21T14:37:24;15.60;99.90
13970;DHT22;7057;49.984;8.404;2023-02-21T14:39:57;15.60;99.90
13970;DHT22;7057;49.984;8.404;2023-02-21T14:42:43;15.60;99.90
13970;DHT22;7057;49.984;8.404;2023-02-21T14:45:28;15.60;99.90
13970;DHT22;7057;49.984;8.404;2023-02-21T14:48:18;15.70;99.90
13970;DHT22;7057;49.984;8.404;2023-02-21T14:51:25;15.70;99.90
13970;DHT22;7057;49.984;8.404;2023-02-21T14:54:15;15.70;99.90
13970;DHT22;7057;49.984;8.404;2023-02-21T14:56:59;15.70;99.90
13970;DHT22;7057;49.984;8.404;2023-02-21T14:59:48;15.60;99.90
13970;DHT22;7057;49.984;8.404;2023-02-21T15:02:28;15.60;99.90
13970;DHT22;7057;49.984;8.404;2023-02-21T15:05:04;15.60;99.90
13970;DHT22;7057;49.984;8.404;2023-02-21T15:07:38;15.50;99.90
13970;DHT22;7057;49.984;8.404;2023-02-21T15:10:14;15.50;99.90
13970;DHT22;7057;49.984;8.404;2023-02-21T15:12:45;15.50;99.90
13970;DHT22;7057;49.984;8.404;2023-02-21T15:15:18;15.60;99.90
13970;DHT22;7057;49.984;8.404;2023-02-21T15:17:56;15.70;99.90
13970;DHT22;7057;49.984;8.404;2023-02-21T15:20:24;15.70;99.90
13970;DHT22;7057;49.984;8.404;2023-02-21T15:22:55;15.60;99.90
13970;DHT22;7057;49.984;8.404;2023-02-21T15:25:23;15.60;99.90
13970;DHT22;7057;49.984;8.404;2023-02-21T15:28:03;15.60;99.90
13970;DHT22;7057;49.984;8.404;2023-02-21T15:30:34;15.60;99.90
13970;DHT22;7057;49.984;8.404;2023-02-21T15:33:14;15.60;99.90
13970;DHT22;7057;49.984;8.404;2023-02-21T15:35:47;15.60;99.90
13970;DHT22;7057;49.984;8.404;2023-02-21T15:38:18;15.60;99.90
13970;DHT22;7057;49.984;8.404;2023-02-21T15:40:47;15.50;99.90
13970;DHT22;7057;49.984;8.404;2023-02-21T15:43:27;15.50;99.90
13970;DHT22;7057;49.984;8.404;2023-02-21T15:45:56;15.40;99.90
13970;DHT22;7057;49.984;8.404;2023-02-21T15:48:26;15.30;99.90
13970;DHT22;7057;49.984;8.404;2023-02-21T15:50:53;15.30;99.90
13970;DHT22;7057;49.984;8.404;2023-02-21T15:53:23;15.20;99.90
13970;DHT22;7057;49.984;8.404;2023-02-21T15:55:51;15.20;99.90
13970;DHT22;7057;49.984;8.404;2023-02-21T15:58:23;15.20;99.90
13970;DHT22;7057;49.984;8.404;2023-02-21T16:01:05;15.10;99.90
13970;DHT22;7057;49.984;8.404;2023-02-21T16:03:36;15.00;99.90
13970;DHT22;7057;49.984;8.404;2023-02-21T16:06:13;15.00;99.90
13970;DHT22;7057;49.984;8.404;2023-02-21T16:08:54;14.90;99.90
13970;DHT22;7057;49.984;8.404;2023-02-21T16:11:25;14.80;99.90
13970;DHT22;7057;49.984;8.404;2023-02-21T16:13:54;14.80;99.90
13970;DHT22;7057;49.984;8.404;2023-02-21T16:16:21;14.70;99.90
13970;DHT22;7057;49.984;8.404;2023-02-21T16:18:55;14.60;99.90
13970;DHT22;7057;49.984;8.404;2023-02-21T16:21:26;14.50;99.90
13970;DHT22;7057;49.984;8.404;2023-02-21T16:23:54;14.40;99.90
13970;DHT22;7057;49.984;8.404;2023-02-21T16:26:24;14.30;99.90
13970;DHT22;7057;49.984;8.404;2023-02-21T16:28:55;14.20;99.90
13970;DHT22;7057;49.984;8.404;2023-02-21T16:31:25;14.00;99.90
13970;DHT22;7057;49.984;8.404;2023-02-21T16:33:53;13.90;99.90
13970;DHT22;7057;49.984;8.404;2023-02-21T16:36:24;13.80;99.90
13970;DHT22;7057;49.984;8.404;2023-02-21T16:38:53;13.70;99.90
13970;DHT22;7057;49.984;8.404;2023-02-21T16:41:20;13.60;99.90
13970;DHT22;7057;49.984;8.404;2023-02-21T16:43:47;13.40;99.90
13970;DHT22;7057;49.984;8.404;2023-02-21T16:46:23;13.30;99.90
13970;DHT22;7057;49.984;8.404;2023-02-21T16:48:52;13.10;99.90
13970;DHT22;7057;49.984;8.404;2023-02-21T16:51:19;13.00;99.90
13970;DHT22;7057;49.984;8.404;2023-02-21T16:53:46;12.90;99.90